Suzun, Russia
Current Conditions -  °F | °C
As of 3:30 AM on Saturday 29 Nov 2014 (Local Time) from UNBB Reporting Station
Clear Clear  
Wind Chill: -49°   Ceiling: Unl
Heat Index: -26°   Visibility: 6mi
Dew Point: -33°   Wind: 11mph
Humidity: 69%   Direction: 240°WSW
Pressure: 30.8"   Gusts: NA
Location:  53.79°N, 82.31°E
Report Text: UNBB 282030Z 24005MPS CAVOK M32/M36 Q1043 NOSIG RMK QFE760/101324800560
Loading
Personal Weather Stations






























Interactive Weather Map New forecast layout! Learn more

10-Day Weather Forecast

Advertisements
Track Severe Weather on mobile